EmailTwitter


Surface observations / United Kingdom / EGUB (03658)

Regions: Quebec | Canada | USA | Europe | France | UK | Elsewhere
Station
Display
Info & Location for EGUB (03658) | Help decoding METAR

Weather Conditions observed on 2019/10/23 at 21:50 UTC at BENSON RAF, UK (EGUB)

Sky conditions: overcast.

Temperature: 11.0 Celsius.

Dewpoint: 10.0 Celsius.

Relative Humidity: 94%

Winds: Calm at 0 km/h or 0 knots.

Mean Sea level Pressure: 100.60 kilopascals.

Horizontal visibility: 3.11 statute miles or 4.97 kilometers.

Height of the Ceiling: 335 metres ( 1100 feet ).

Coded METAR:

EGUB 232150Z AUTO 00000KT 5000 // OVC011/// 11/10 Q1006=